createdAt,value
2019-02-06T00:00:26.497Z,0
2019-02-06T00:01:00.912Z,0
2019-02-06T00:01:41.539Z,0
2019-02-06T00:02:22.196Z,0
2019-02-06T00:03:02.825Z,0
2019-02-06T00:03:43.488Z,0
2019-02-06T00:04:24.127Z,0
2019-02-06T00:05:13.805Z,0
2019-02-06T00:05:45.429Z,0
2019-02-06T00:06:26.026Z,0
2019-02-06T00:07:06.671Z,0
2019-02-06T00:07:47.311Z,0
2019-02-06T00:08:27.955Z,0
2019-02-06T00:09:08.596Z,0
2019-02-06T00:09:49.208Z,0
2019-02-06T00:10:29.847Z,0
2019-02-06T00:11:10.529Z,0
2019-02-06T00:11:51.129Z,0
2019-02-06T00:12:31.785Z,0
2019-02-06T00:13:12.426Z,0
2019-02-06T00:13:53.035Z,0
2019-02-06T00:14:33.683Z,0
2019-02-06T00:15:14.295Z,0
2019-02-06T00:15:54.887Z,0
2019-02-06T00:16:35.503Z,0
2019-02-06T00:17:16.128Z,0
2019-02-06T00:17:56.907Z,0
2019-02-06T00:18:37.373Z,0
2019-02-06T00:19:17.991Z,0
2019-02-06T00:19:58.601Z,0
2019-02-06T00:20:39.194Z,0
2019-02-06T00:21:20.555Z,0
2019-02-06T00:22:00.429Z,0
2019-02-06T00:22:41.032Z,0
2019-02-06T00:23:21.656Z,0
2019-02-06T00:24:02.309Z,0
2019-02-06T00:24:42.931Z,0
2019-02-06T00:25:23.546Z,0
2019-02-06T00:26:04.144Z,0
2019-02-06T00:26:44.759Z,0
2019-02-06T00:27:25.376Z,0
2019-02-06T00:28:05.994Z,0
2019-02-06T00:28:46.608Z,0
2019-02-06T00:29:27.218Z,0
2019-02-06T00:30:07.841Z,0
2019-02-06T00:30:48.440Z,0
2019-02-06T00:31:29.163Z,0
2019-02-06T00:32:09.901Z,0
2019-02-06T00:32:50.499Z,0
2019-02-06T00:33:31.106Z,0
2019-02-06T00:34:11.728Z,0
2019-02-06T00:34:52.329Z,0
2019-02-06T00:35:32.925Z,0
2019-02-06T00:36:13.551Z,0
2019-02-06T00:36:54.151Z,0
2019-02-06T00:37:34.766Z,0
2019-02-06T00:38:15.379Z,0
2019-02-06T00:38:56.004Z,0
2019-02-06T00:39:36.645Z,0
2019-02-06T00:40:17.308Z,0
2019-02-06T00:40:57.916Z,0
2019-02-06T00:41:38.604Z,0
2019-02-06T00:42:19.313Z,0
2019-02-06T00:42:59.922Z,0
2019-02-06T00:43:40.575Z,0
2019-02-06T00:44:21.448Z,0
2019-02-06T00:45:02.338Z,0
2019-02-06T00:45:42.940Z,0
2019-02-06T00:46:23.558Z,0
2019-02-06T00:47:04.202Z,0
2019-02-06T00:47:44.803Z,0
2019-02-06T00:48:25.455Z,0
2019-02-06T00:49:06.091Z,0
2019-02-06T00:49:46.685Z,0
2019-02-06T00:50:27.277Z,0
2019-02-06T00:51:07.862Z,0
2019-02-06T00:51:48.481Z,0
2019-02-06T00:52:29.080Z,0
2019-02-06T00:53:09.669Z,0
2019-02-06T00:53:50.272Z,0
2019-02-06T00:54:30.878Z,0
2019-02-06T00:55:11.466Z,0
2019-02-06T00:55:52.121Z,0
2019-02-06T00:56:32.747Z,0
2019-02-06T00:57:13.363Z,0
2019-02-06T00:57:54.014Z,0
2019-02-06T00:58:34.634Z,0
2019-02-06T00:59:15.233Z,0
2019-02-06T00:59:58.364Z,0
2019-02-06T01:00:36.425Z,0
2019-02-06T01:01:17.041Z,0
2019-02-06T01:01:57.633Z,0
2019-02-06T01:02:38.639Z,0
2019-02-06T01:03:19.960Z,0
2019-02-06T01:04:00.605Z,0
2019-02-06T01:04:41.193Z,0
2019-02-06T01:05:21.789Z,0
2019-02-06T01:06:02.393Z,0
2019-02-06T01:06:42.977Z,0
2019-02-06T01:07:23.565Z,0
2019-02-06T01:08:04.177Z,0
2019-02-06T01:08:44.797Z,0
2019-02-06T01:09:25.379Z,0
2019-02-06T01:10:06.067Z,0
2019-02-06T01:10:46.697Z,0
2019-02-06T01:11:27.428Z,0
2019-02-06T01:12:08.056Z,0
2019-02-06T01:12:48.689Z,0
2019-02-06T01:13:29.562Z,0
2019-02-06T01:14:10.190Z,0
2019-02-06T01:14:51.089Z,0
2019-02-06T01:15:31.632Z,0
2019-02-06T01:16:12.221Z,0
2019-02-06T01:16:52.835Z,0
2019-02-06T01:17:33.427Z,0
2019-02-06T01:18:14.023Z,0
2019-02-06T01:18:54.615Z,0
2019-02-06T01:19:35.219Z,0
2019-02-06T01:20:15.843Z,0
2019-02-06T01:20:56.449Z,0
2019-02-06T01:21:37.063Z,0
2019-02-06T01:22:17.697Z,0
2019-02-06T01:22:58.305Z,0
2019-02-06T01:23:38.905Z,0
2019-02-06T01:24:19.498Z,0
2019-02-06T01:25:00.192Z,0
2019-02-06T01:25:40.723Z,0
2019-02-06T01:26:21.442Z,0
2019-02-06T01:27:02.055Z,0
2019-02-06T01:27:42.680Z,0
2019-02-06T01:28:23.284Z,0
2019-02-06T01:29:03.865Z,0
2019-02-06T01:29:44.499Z,0
2019-02-06T01:30:25.137Z,0
2019-02-06T01:31:05.737Z,0
2019-02-06T01:31:46.332Z,0
2019-02-06T01:32:26.947Z,0
2019-02-06T01:33:07.535Z,0
2019-02-06T01:33:48.134Z,0
2019-02-06T01:34:28.775Z,0
2019-02-06T01:35:09.369Z,0
2019-02-06T01:35:50.407Z,0
2019-02-06T01:36:30.583Z,0
2019-02-06T01:37:11.185Z,0
2019-02-06T01:37:51.792Z,0
2019-02-06T01:38:32.507Z,0
2019-02-06T01:39:13.060Z,0
2019-02-06T01:39:53.653Z,0
2019-02-06T01:40:34.245Z,0
2019-02-06T01:41:14.841Z,0
2019-02-06T01:41:55.425Z,0
2019-02-06T01:42:36.017Z,0
2019-02-06T01:43:16.673Z,0
2019-02-06T01:43:57.289Z,0
2019-02-06T01:44:37.869Z,0
2019-02-06T01:45:18.485Z,0
2019-02-06T01:45:59.091Z,0
2019-02-06T01:46:39.700Z,0
2019-02-06T01:47:20.312Z,0
2019-02-06T01:48:00.904Z,0
2019-02-06T01:48:41.501Z,0
2019-02-06T01:49:22.093Z,0
2019-02-06T01:50:02.700Z,0
2019-02-06T01:50:43.285Z,0
2019-02-06T01:51:23.879Z,0
2019-02-06T01:52:04.485Z,0
2019-02-06T01:52:45.079Z,0
2019-02-06T01:53:25.661Z,0
2019-02-06T01:54:06.249Z,0
2019-02-06T01:54:46.853Z,0
2019-02-06T01:55:27.459Z,0
2019-02-06T01:56:08.057Z,0
2019-02-06T01:56:48.667Z,0
2019-02-06T01:57:29.253Z,0
2019-02-06T01:58:09.868Z,0
2019-02-06T01:58:50.459Z,0
2019-02-06T01:59:31.074Z,0
2019-02-06T02:00:11.661Z,0
2019-02-06T02:00:52.296Z,0
2019-02-06T02:01:32.907Z,0
2019-02-06T02:02:13.527Z,0
2019-02-06T02:02:54.117Z,0
2019-02-06T02:03:34.710Z,0
2019-02-06T02:04:15.304Z,0
2019-02-06T02:04:55.916Z,0
2019-02-06T02:05:37.885Z,0
2019-02-06T02:06:17.111Z,0
2019-02-06T02:06:57.701Z,0
2019-02-06T02:07:38.293Z,0
2019-02-06T02:08:18.916Z,0
2019-02-06T02:08:59.501Z,0
2019-02-06T02:09:40.107Z,0
2019-02-06T02:10:20.704Z,0
2019-02-06T02:11:01.298Z,0
2019-02-06T02:11:41.889Z,0
2019-02-06T02:12:22.497Z,0
2019-02-06T02:13:03.119Z,0
2019-02-06T02:13:43.718Z,0
2019-02-06T02:14:24.317Z,0
2019-02-06T02:15:04.913Z,0
2019-02-06T02:15:45.513Z,0
2019-02-06T02:16:26.118Z,0
2019-02-06T02:17:06.801Z,0
2019-02-06T02:17:47.396Z,0
2019-02-06T02:18:27.993Z,0
2019-02-06T02:19:08.587Z,0
2019-02-06T02:19:49.195Z,0
2019-02-06T02:20:29.793Z,0
2019-02-06T02:21:10.389Z,0
2019-02-06T02:21:50.989Z,0
2019-02-06T02:22:31.605Z,0
2019-02-06T02:23:12.213Z,0
2019-02-06T02:23:52.809Z,0
2019-02-06T02:24:33.409Z,0
2019-02-06T02:25:13.997Z,0
2019-02-06T02:25:54.585Z,0
2019-02-06T02:26:35.191Z,0
2019-02-06T02:27:15.813Z,0
2019-02-06T02:27:56.435Z,0
2019-02-06T02:28:37.023Z,0
2019-02-06T02:29:17.621Z,0
2019-02-06T02:29:58.213Z,0
2019-02-06T02:30:38.845Z,0
2019-02-06T02:31:19.413Z,0
2019-02-06T02:32:00.000Z,0
2019-02-06T02:32:40.610Z,0
2019-02-06T02:33:21.222Z,0
2019-02-06T02:34:01.817Z,0
2019-02-06T02:34:42.427Z,0
2019-02-06T02:35:23.088Z,0
2019-02-06T02:36:14.793Z,0
2019-02-06T02:36:44.229Z,0
2019-02-06T02:37:24.822Z,0
2019-02-06T02:38:05.440Z,0
2019-02-06T02:38:46.053Z,0
2019-02-06T02:39:26.680Z,0
2019-02-06T02:40:07.281Z,0
2019-02-06T02:40:47.880Z,0
2019-02-06T02:41:28.497Z,0
2019-02-06T02:42:09.107Z,0
2019-02-06T02:42:49.695Z,0
2019-02-06T02:43:30.293Z,0
2019-02-06T02:44:10.921Z,0
2019-02-06T02:44:51.541Z,0
2019-02-06T02:45:32.179Z,0
2019-02-06T02:46:12.820Z,0
2019-02-06T02:46:53.432Z,0
2019-02-06T02:47:34.025Z,0
2019-02-06T02:48:14.613Z,0
2019-02-06T02:48:55.195Z,0
2019-02-06T02:49:35.784Z,0
2019-02-06T02:50:16.390Z,0
2019-02-06T02:50:56.992Z,0
2019-02-06T02:51:37.615Z,0
2019-02-06T02:52:18.225Z,0
2019-02-06T02:52:58.857Z,0
2019-02-06T02:53:39.433Z,0
2019-02-06T02:54:20.039Z,0
2019-02-06T02:55:00.641Z,0
2019-02-06T02:55:41.244Z,0
2019-02-06T02:56:21.863Z,0
2019-02-06T02:57:02.485Z,0
2019-02-06T02:57:43.089Z,0
2019-02-06T02:58:23.679Z,0
2019-02-06T02:59:04.302Z,0
2019-02-06T02:59:44.921Z,0
2019-02-06T03:00:25.564Z,0
2019-02-06T03:01:06.200Z,0
2019-02-06T03:01:46.775Z,0
2019-02-06T03:02:27.383Z,0
2019-02-06T03:03:08.000Z,0
2019-02-06T03:03:48.627Z,0
2019-02-06T03:04:29.255Z,0
2019-02-06T03:05:09.847Z,0
2019-02-06T03:05:50.448Z,0
2019-02-06T03:06:31.066Z,0
2019-02-06T03:07:11.673Z,0
2019-02-06T03:07:52.294Z,0
2019-02-06T03:08:32.887Z,0
2019-02-06T03:09:13.481Z,0
2019-02-06T03:09:54.083Z,0
2019-02-06T03:10:34.695Z,0
2019-02-06T03:11:15.288Z,0
2019-02-06T03:11:55.881Z,0
2019-02-06T03:12:36.536Z,0
2019-02-06T03:13:17.122Z,0
2019-02-06T03:13:57.717Z,0
2019-02-06T03:14:38.317Z,0
2019-02-06T03:15:18.922Z,0
2019-02-06T03:15:59.514Z,0
2019-02-06T03:16:40.106Z,0
2019-02-06T03:17:20.700Z,0
2019-02-06T03:18:01.321Z,0
2019-02-06T03:18:41.913Z,0
2019-02-06T03:19:22.509Z,0
2019-02-06T03:20:03.113Z,0
2019-02-06T03:20:43.722Z,0
2019-02-06T03:21:24.337Z,0
2019-02-06T03:22:04.955Z,0
2019-02-06T03:22:45.567Z,0
2019-02-06T03:23:26.170Z,0
2019-02-06T03:24:06.817Z,0
2019-02-06T03:24:47.441Z,0
2019-02-06T03:25:28.067Z,0
2019-02-06T03:26:08.671Z,0
2019-02-06T03:26:49.259Z,0
2019-02-06T03:27:29.889Z,0
2019-02-06T03:28:10.493Z,0
2019-02-06T03:28:51.129Z,0
2019-02-06T03:29:31.712Z,0
2019-02-06T03:30:12.321Z,0
2019-02-06T03:30:52.943Z,0
2019-02-06T03:31:33.569Z,0
2019-02-06T03:32:14.143Z,0
2019-02-06T03:32:54.742Z,0
2019-02-06T03:33:35.341Z,0
2019-02-06T03:34:15.952Z,0
2019-02-06T03:34:56.560Z,0
2019-02-06T03:35:37.189Z,0
2019-02-06T03:36:17.820Z,0
2019-02-06T03:36:58.580Z,0
2019-02-06T03:37:39.037Z,0
2019-02-06T03:38:20.553Z,0
2019-02-06T03:39:01.156Z,0
2019-02-06T03:39:41.755Z,0
2019-02-06T03:40:22.325Z,0
2019-02-06T03:41:02.937Z,0
2019-02-06T03:41:43.537Z,0
2019-02-06T03:42:24.143Z,0
2019-02-06T03:43:04.732Z,0
2019-02-06T03:43:45.341Z,0
2019-02-06T03:44:25.953Z,0
2019-02-06T03:45:06.554Z,0
2019-02-06T03:45:47.141Z,0
2019-02-06T03:46:27.749Z,0
2019-02-06T03:47:08.364Z,0
2019-02-06T03:47:48.955Z,0
2019-02-06T03:48:29.564Z,0
2019-02-06T03:49:10.151Z,0
2019-02-06T03:49:50.808Z,0
2019-02-06T03:50:31.426Z,0
2019-02-06T03:51:12.038Z,0
2019-02-06T03:51:52.662Z,0
2019-02-06T03:52:33.271Z,0
2019-02-06T03:53:13.875Z,0
2019-02-06T03:53:54.478Z,0
2019-02-06T03:54:35.085Z,0
2019-02-06T03:55:15.683Z,0
2019-02-06T03:55:56.291Z,0
2019-02-06T03:56:36.887Z,0
2019-02-06T03:57:17.497Z,0
2019-02-06T03:57:58.093Z,0
2019-02-06T03:58:38.681Z,0
2019-02-06T03:59:19.285Z,0
2019-02-06T03:59:59.891Z,0
2019-02-06T04:00:40.505Z,0
2019-02-06T04:01:21.115Z,0
2019-02-06T04:02:01.744Z,0
2019-02-06T04:02:42.345Z,0
2019-02-06T04:03:22.949Z,0
2019-02-06T04:04:03.572Z,0
2019-02-06T04:04:44.149Z,0
2019-02-06T04:05:24.771Z,0
2019-02-06T04:06:05.366Z,0
2019-02-06T04:06:54.474Z,0
2019-02-06T04:07:26.556Z,0
2019-02-06T04:08:07.236Z,0
2019-02-06T04:08:47.761Z,0
2019-02-06T04:09:28.361Z,0
2019-02-06T04:10:08.976Z,0
2019-02-06T04:10:49.601Z,0
2019-02-06T04:11:30.207Z,0
2019-02-06T04:12:10.793Z,0
2019-02-06T04:12:51.407Z,0
2019-02-06T04:13:32.027Z,0
2019-02-06T04:14:12.647Z,0
2019-02-06T04:14:53.235Z,0
2019-02-06T04:15:33.836Z,0
2019-02-06T04:16:14.429Z,0
2019-02-06T04:16:55.049Z,0
2019-02-06T04:17:35.641Z,0
2019-02-06T04:18:16.267Z,0
2019-02-06T04:18:56.892Z,0
2019-02-06T04:19:37.507Z,0
2019-02-06T04:20:18.132Z,0
2019-02-06T04:20:58.752Z,0
2019-02-06T04:21:39.351Z,0
2019-02-06T04:22:19.961Z,0
2019-02-06T04:23:00.589Z,0
2019-02-06T04:23:41.201Z,0
2019-02-06T04:24:21.800Z,0
2019-02-06T04:25:02.413Z,0
2019-02-06T04:25:43.015Z,0
2019-02-06T04:26:23.609Z,0
2019-02-06T04:27:04.191Z,0
2019-02-06T04:27:44.785Z,0
2019-02-06T04:28:25.373Z,0
2019-02-06T04:29:05.997Z,0
2019-02-06T04:29:46.583Z,0
2019-02-06T04:30:27.188Z,0
2019-02-06T04:31:07.798Z,0
2019-02-06T04:31:48.414Z,0
2019-02-06T04:32:29.032Z,0
2019-02-06T04:33:09.601Z,0
2019-02-06T04:33:50.194Z,0
2019-02-06T04:34:30.793Z,0
2019-02-06T04:35:11.393Z,0
2019-02-06T04:35:52.033Z,0
2019-02-06T04:36:32.649Z,0
2019-02-06T04:37:13.255Z,0
2019-02-06T04:37:53.847Z,0
2019-02-06T04:38:34.443Z,0
2019-02-06T04:39:15.053Z,0
2019-02-06T04:39:55.650Z,0
2019-02-06T04:40:36.240Z,0
2019-02-06T04:41:16.849Z,0
2019-02-06T04:41:57.443Z,0
2019-02-06T04:42:38.035Z,0
2019-02-06T04:43:18.633Z,0
2019-02-06T04:43:59.240Z,0
2019-02-06T04:44:39.853Z,0
2019-02-06T04:45:20.463Z,0
2019-02-06T04:46:01.074Z,0
2019-02-06T04:46:41.725Z,0
2019-02-06T04:47:22.325Z,0
2019-02-06T04:48:02.936Z,0
2019-02-06T04:48:43.542Z,0
2019-02-06T04:49:24.165Z,0
2019-02-06T04:50:04.781Z,0
2019-02-06T04:50:45.388Z,0
2019-02-06T04:51:25.982Z,0
2019-02-06T04:52:06.583Z,0
2019-02-06T04:52:47.189Z,0
2019-02-06T04:53:27.847Z,0
2019-02-06T04:54:08.487Z,0
2019-02-06T04:54:49.100Z,0
2019-02-06T04:55:29.708Z,0
2019-02-06T04:56:10.297Z,0
2019-02-06T04:56:50.908Z,0
2019-02-06T04:57:31.527Z,0
2019-02-06T04:58:12.118Z,0
2019-02-06T04:58:52.727Z,0
2019-02-06T04:59:33.344Z,0
2019-02-06T05:00:13.942Z,0
2019-02-06T05:00:54.580Z,0
2019-02-06T05:01:35.169Z,0
2019-02-06T05:02:15.768Z,0
2019-02-06T05:02:56.371Z,0
2019-02-06T05:03:36.969Z,0
2019-02-06T05:04:17.587Z,0
2019-02-06T05:04:58.173Z,0
2019-02-06T05:05:38.781Z,0
2019-02-06T05:06:19.377Z,0
2019-02-06T05:06:59.976Z,0
2019-02-06T05:07:40.582Z,0
2019-02-06T05:08:21.218Z,0
2019-02-06T05:09:01.816Z,0
2019-02-06T05:09:42.455Z,0
2019-02-06T05:10:23.041Z,0
2019-02-06T05:11:03.652Z,0
2019-02-06T05:11:44.251Z,0
2019-02-06T05:12:24.849Z,0
2019-02-06T05:13:05.502Z,0
2019-02-06T05:13:46.129Z,0
2019-02-06T05:14:26.748Z,0
2019-02-06T05:15:07.346Z,0
2019-02-06T05:15:47.958Z,0
2019-02-06T05:16:28.575Z,0
2019-02-06T05:17:09.189Z,0
2019-02-06T05:17:49.779Z,0
2019-02-06T05:18:30.378Z,0
2019-02-06T05:19:10.988Z,0
2019-02-06T05:19:51.595Z,0
2019-02-06T05:20:32.217Z,0
2019-02-06T05:21:12.838Z,0
2019-02-06T05:21:53.437Z,0
2019-02-06T05:22:34.037Z,0
2019-02-06T05:23:14.670Z,0
2019-02-06T05:23:55.259Z,0
2019-02-06T05:24:35.843Z,0
2019-02-06T05:25:16.437Z,0
2019-02-06T05:25:57.042Z,0
2019-02-06T05:26:37.640Z,0
2019-02-06T05:27:18.251Z,0
2019-02-06T05:27:58.857Z,0
2019-02-06T05:28:39.464Z,0
2019-02-06T05:29:20.072Z,0
2019-02-06T05:30:00.680Z,0
2019-02-06T05:30:41.260Z,0
2019-02-06T05:31:21.889Z,0
2019-02-06T05:32:02.497Z,0
2019-02-06T05:32:43.153Z,0
2019-02-06T05:33:23.821Z,0
2019-02-06T05:34:04.318Z,0
2019-02-06T05:34:44.907Z,0
2019-02-06T05:35:25.543Z,0
2019-02-06T05:36:06.125Z,0
2019-02-06T05:36:46.730Z,0
2019-02-06T05:37:31.867Z,0
2019-02-06T05:38:07.975Z,0
2019-02-06T05:38:48.589Z,0
2019-02-06T05:39:29.169Z,0
2019-02-06T05:40:09.805Z,0
2019-02-06T05:40:50.402Z,0
2019-02-06T05:41:30.986Z,0
2019-02-06T05:42:11.590Z,0
2019-02-06T05:42:52.857Z,0
2019-02-06T05:43:32.791Z,0
2019-02-06T05:44:13.397Z,0
2019-02-06T05:44:54.043Z,0
2019-02-06T05:45:34.652Z,0
2019-02-06T05:46:15.254Z,0
2019-02-06T05:46:55.864Z,0
2019-02-06T05:47:36.500Z,0
2019-02-06T05:48:17.113Z,0
2019-02-06T05:48:57.708Z,0
2019-02-06T05:49:38.321Z,0
2019-02-06T05:50:18.915Z,0
2019-02-06T05:50:59.576Z,0
2019-02-06T05:51:40.129Z,0
2019-02-06T05:52:20.746Z,0
2019-02-06T05:53:01.362Z,0
2019-02-06T05:53:41.969Z,0
2019-02-06T05:54:22.571Z,0
2019-02-06T05:55:04.624Z,0
2019-02-06T05:55:43.784Z,0
2019-02-06T05:56:24.428Z,0
2019-02-06T05:57:05.040Z,0
2019-02-06T05:57:45.634Z,0
2019-02-06T05:58:26.252Z,0
2019-02-06T05:59:06.844Z,0
2019-02-06T05:59:47.464Z,0
2019-02-06T06:00:28.060Z,0
2019-02-06T06:01:08.670Z,0
2019-02-06T06:01:49.272Z,0
2019-02-06T06:02:29.866Z,0
2019-02-06T06:03:10.494Z,0
2019-02-06T06:03:51.090Z,0
2019-02-06T06:04:31.700Z,0
2019-02-06T06:05:12.349Z,0
2019-02-06T06:05:52.977Z,0
2019-02-06T06:06:33.587Z,0
2019-02-06T06:07:14.190Z,0
2019-02-06T06:07:54.786Z,0
2019-02-06T06:08:35.372Z,0
2019-02-06T06:09:15.980Z,0
2019-02-06T06:09:56.592Z,0
2019-02-06T06:10:37.199Z,0
2019-02-06T06:11:17.791Z,0
2019-02-06T06:11:58.399Z,0
2019-02-06T06:12:38.980Z,0
2019-02-06T06:13:19.594Z,0
2019-02-06T06:14:00.201Z,0
2019-02-06T06:14:40.805Z,0
2019-02-06T06:15:21.398Z,0
2019-02-06T06:16:02.017Z,0
2019-02-06T06:16:42.626Z,0
2019-02-06T06:17:23.214Z,0
2019-02-06T06:18:03.801Z,0
2019-02-06T06:18:44.415Z,0
2019-02-06T06:19:25.016Z,0
2019-02-06T06:20:05.610Z,0
2019-02-06T06:20:46.220Z,0
2019-02-06T06:21:26.842Z,0
2019-02-06T06:22:07.443Z,0
2019-02-06T06:22:48.132Z,0
2019-02-06T06:23:28.628Z,0
2019-02-06T06:24:09.280Z,0
2019-02-06T06:24:49.824Z,0
2019-02-06T06:25:30.462Z,0
2019-02-06T06:26:11.084Z,0
2019-02-06T06:26:51.700Z,0
2019-02-06T06:27:32.296Z,0
2019-02-06T06:28:12.892Z,0
2019-02-06T06:28:53.542Z,0
2019-02-06T06:29:34.138Z,0
2019-02-06T06:30:14.724Z,0
2019-02-06T06:30:55.370Z,0
2019-02-06T06:31:36.070Z,0
2019-02-06T06:32:16.564Z,0
2019-02-06T06:32:57.172Z,0
2019-02-06T06:33:37.814Z,0
2019-02-06T06:34:18.433Z,0
2019-02-06T06:34:59.045Z,0
2019-02-06T06:35:39.625Z,0
2019-02-06T06:36:20.229Z,0
2019-02-06T06:37:00.821Z,0
2019-02-06T06:37:41.781Z,0
2019-02-06T06:38:22.014Z,0
2019-02-06T06:39:02.608Z,0
2019-02-06T06:39:43.258Z,4
2019-02-06T06:40:23.843Z,0
2019-02-06T06:41:04.428Z,0
2019-02-06T06:41:45.028Z,0
2019-02-06T06:42:25.616Z,4
2019-02-06T06:43:06.470Z,0
2019-02-06T06:43:46.819Z,0
2019-02-06T06:44:27.422Z,4
2019-02-06T06:45:08.022Z,0
2019-02-06T06:45:48.638Z,4
2019-02-06T06:46:29.224Z,4
2019-02-06T06:47:09.884Z,4
2019-02-06T06:47:50.487Z,4
2019-02-06T06:48:31.074Z,4
2019-02-06T06:49:11.678Z,4
2019-02-06T06:49:52.344Z,4
2019-02-06T06:50:32.939Z,8
2019-02-06T06:51:13.567Z,8
2019-02-06T06:51:54.148Z,8
2019-02-06T06:52:34.748Z,8
2019-02-06T06:53:15.340Z,8
2019-02-06T06:53:55.983Z,12
2019-02-06T06:54:36.589Z,12
2019-02-06T06:55:17.213Z,12
2019-02-06T06:55:57.799Z,16
2019-02-06T06:56:38.404Z,20
2019-02-06T06:57:19.042Z,20
2019-02-06T06:57:59.696Z,20
2019-02-06T06:58:40.294Z,24
2019-02-06T06:59:21.361Z,24
2019-02-06T07:00:01.924Z,28
2019-02-06T07:00:42.538Z,28
2019-02-06T07:01:23.142Z,32
2019-02-06T07:02:03.742Z,32
2019-02-06T07:02:44.329Z,36
2019-02-06T07:03:24.943Z,36
2019-02-06T07:04:05.677Z,40
2019-02-06T07:04:46.272Z,44
2019-02-06T07:05:26.883Z,48
2019-02-06T07:06:07.511Z,48
2019-02-06T07:06:48.120Z,52
2019-02-06T07:07:28.779Z,56
2019-02-06T07:08:13.076Z,56
2019-02-06T07:08:49.996Z,60
2019-02-06T07:09:30.594Z,64
2019-02-06T07:10:12.238Z,64
2019-02-06T07:10:51.828Z,68
2019-02-06T07:11:32.416Z,68
2019-02-06T07:12:13.020Z,72
2019-02-06T07:12:53.672Z,80
2019-02-06T07:13:34.308Z,80
2019-02-06T07:14:14.886Z,84
2019-02-06T07:14:55.476Z,88
2019-02-06T07:15:36.086Z,88
2019-02-06T07:16:16.699Z,92
2019-02-06T07:16:57.290Z,96
2019-02-06T07:17:37.894Z,100
2019-02-06T07:18:18.490Z,104
2019-02-06T07:18:59.089Z,108
2019-02-06T07:19:39.728Z,108
2019-02-06T07:20:20.319Z,112
2019-02-06T07:21:01.720Z,120
2019-02-06T07:21:41.586Z,120
2019-02-06T07:22:22.202Z,124
2019-02-06T07:23:02.857Z,124
2019-02-06T07:23:43.500Z,132
2019-02-06T07:24:24.102Z,132
2019-02-06T07:25:04.706Z,140
2019-02-06T07:25:45.348Z,140
2019-02-06T07:26:25.984Z,144
2019-02-06T07:27:06.576Z,152
2019-02-06T07:27:47.173Z,152
2019-02-06T07:28:27.794Z,160
2019-02-06T07:29:08.408Z,164
2019-02-06T07:29:49.016Z,164
2019-02-06T07:30:29.634Z,172
2019-02-06T07:31:10.238Z,172
2019-02-06T07:31:50.829Z,172
2019-02-06T07:32:31.437Z,180
2019-02-06T07:33:12.082Z,184
2019-02-06T07:33:52.684Z,188
2019-02-06T07:34:33.342Z,188
2019-02-06T07:35:13.937Z,192
2019-02-06T07:35:54.557Z,196
2019-02-06T07:36:35.155Z,196
2019-02-06T07:37:15.742Z,204
2019-02-06T07:37:56.345Z,204
2019-02-06T07:38:36.942Z,208
2019-02-06T07:39:17.558Z,212
2019-02-06T07:39:58.189Z,216
2019-02-06T07:40:38.804Z,216
2019-02-06T07:41:19.427Z,220
2019-02-06T07:42:00.014Z,224
2019-02-06T07:42:40.628Z,224
2019-02-06T07:43:21.254Z,228
2019-02-06T07:44:01.907Z,232
2019-02-06T07:44:42.583Z,232
2019-02-06T07:45:23.203Z,236
2019-02-06T07:46:03.801Z,240
2019-02-06T07:46:44.399Z,240
2019-02-06T07:47:25.011Z,248
2019-02-06T07:48:05.618Z,252
2019-02-06T07:48:46.234Z,256
2019-02-06T07:49:26.840Z,256
2019-02-06T07:50:07.433Z,260
2019-02-06T07:50:48.040Z,264
2019-02-06T07:51:28.639Z,264
2019-02-06T07:52:09.258Z,268
2019-02-06T07:52:49.840Z,268
2019-02-06T07:53:30.456Z,272
2019-02-06T07:54:11.506Z,272
2019-02-06T07:54:52.100Z,272
2019-02-06T07:55:32.707Z,272
2019-02-06T07:56:13.304Z,276
2019-02-06T07:56:53.935Z,276
2019-02-06T07:57:34.522Z,280
2019-02-06T07:58:15.129Z,280
2019-02-06T07:58:55.717Z,284
2019-02-06T07:59:36.333Z,284
2019-02-06T08:00:16.944Z,292
2019-02-06T08:00:57.533Z,292
2019-02-06T08:01:38.136Z,296
2019-02-06T08:02:18.734Z,296
2019-02-06T08:02:59.359Z,300
2019-02-06T08:03:39.952Z,304
2019-02-06T08:04:20.571Z,304
2019-02-06T08:05:01.180Z,308
2019-02-06T08:05:41.791Z,308
2019-02-06T08:06:22.400Z,312
2019-02-06T08:07:03.051Z,316
2019-02-06T08:07:43.668Z,316
2019-02-06T08:08:35.155Z,320
2019-02-06T08:09:04.896Z,324
2019-02-06T08:09:45.500Z,324
2019-02-06T08:10:26.093Z,328
2019-02-06T08:11:06.697Z,332
2019-02-06T08:11:47.302Z,332
2019-02-06T08:12:27.908Z,336
2019-02-06T08:13:08.577Z,336
2019-02-06T08:13:49.125Z,340
2019-02-06T08:14:29.815Z,340
2019-02-06T08:15:10.498Z,348
2019-02-06T08:15:51.115Z,348
2019-02-06T08:16:31.713Z,348
2019-02-06T08:17:12.297Z,352
2019-02-06T08:17:52.901Z,352
2019-02-06T08:18:33.527Z,352
2019-02-06T08:19:14.141Z,356
2019-02-06T08:19:54.761Z,356
2019-02-06T08:20:35.354Z,356
2019-02-06T08:21:15.953Z,360
2019-02-06T08:21:56.544Z,360
2019-02-06T08:22:37.151Z,360
2019-02-06T08:23:17.760Z,364
2019-02-06T08:23:58.405Z,360
2019-02-06T08:24:39.024Z,364
2019-02-06T08:25:19.629Z,360
2019-02-06T08:26:00.231Z,364
2019-02-06T08:26:40.834Z,364
2019-02-06T08:27:21.410Z,364
2019-02-06T08:28:01.997Z,364
2019-02-06T08:28:42.581Z,364
2019-02-06T08:29:23.181Z,364
2019-02-06T08:30:03.812Z,368
2019-02-06T08:30:44.394Z,368
2019-02-06T08:31:24.998Z,368
2019-02-06T08:32:05.581Z,372
2019-02-06T08:32:46.181Z,368
2019-02-06T08:33:26.774Z,372
2019-02-06T08:34:07.376Z,372
2019-02-06T08:34:47.969Z,372
2019-02-06T08:35:28.579Z,372
2019-02-06T08:36:09.180Z,376
2019-02-06T08:36:49.786Z,372
2019-02-06T08:37:30.394Z,376
2019-02-06T08:38:10.986Z,380
2019-02-06T08:38:51.600Z,380
2019-02-06T08:39:32.209Z,380
2019-02-06T08:40:12.804Z,380
2019-02-06T08:40:53.406Z,388
2019-02-06T08:41:34.167Z,384
2019-02-06T08:42:14.770Z,388
2019-02-06T08:42:55.396Z,392
2019-02-06T08:43:36.078Z,392
2019-02-06T08:44:16.676Z,396
2019-02-06T08:44:57.270Z,396
2019-02-06T08:45:37.903Z,400
2019-02-06T08:46:18.490Z,400
2019-02-06T08:46:59.086Z,400
2019-02-06T08:47:39.688Z,404
2019-02-06T08:48:20.292Z,404
2019-02-06T08:49:00.902Z,412
2019-02-06T08:49:41.494Z,412
2019-02-06T08:50:22.091Z,416
2019-02-06T08:51:02.694Z,420
2019-02-06T08:51:43.300Z,424
2019-02-06T08:52:23.900Z,424
2019-02-06T08:53:04.505Z,424
2019-02-06T08:53:45.124Z,432
2019-02-06T08:54:25.723Z,428
2019-02-06T08:55:06.318Z,432
2019-02-06T08:55:46.916Z,436
2019-02-06T08:56:27.548Z,440
2019-02-06T08:57:08.138Z,444
2019-02-06T08:57:48.748Z,448
2019-02-06T08:58:29.358Z,452
2019-02-06T08:59:10.061Z,452
2019-02-06T08:59:56.362Z,460
2019-02-06T09:00:36.992Z,460
2019-02-06T09:01:17.593Z,460
2019-02-06T09:01:58.210Z,464
2019-02-06T09:02:38.820Z,464
2019-02-06T09:03:19.420Z,464
2019-02-06T09:04:00.069Z,468
2019-02-06T09:04:40.680Z,472
2019-02-06T09:05:21.387Z,476
2019-02-06T09:06:02.000Z,476
2019-02-06T09:06:42.648Z,480
2019-02-06T09:07:23.243Z,480
2019-02-06T09:08:03.899Z,484
2019-02-06T09:08:44.506Z,488
2019-02-06T09:09:25.106Z,488
2019-02-06T09:10:05.733Z,492
2019-02-06T09:10:46.333Z,500
2019-02-06T09:11:26.975Z,500
2019-02-06T09:12:07.578Z,508
2019-02-06T09:12:48.201Z,504
2019-02-06T09:13:28.798Z,504
2019-02-06T09:14:09.400Z,508
2019-02-06T09:14:50.130Z,508
2019-02-06T09:15:30.764Z,516
2019-02-06T09:16:11.355Z,516
2019-02-06T09:16:51.996Z,520
2019-02-06T09:17:32.618Z,524
2019-02-06T09:18:13.212Z,528
2019-02-06T09:18:53.876Z,528
2019-02-06T09:19:34.506Z,528
2019-02-06T09:20:15.146Z,536
2019-02-06T09:20:55.752Z,536
2019-02-06T09:21:36.362Z,540
2019-02-06T09:22:16.963Z,548
2019-02-06T09:22:57.540Z,548
2019-02-06T09:23:38.151Z,548
2019-02-06T09:24:18.749Z,548
2019-02-06T09:24:59.386Z,548
2019-02-06T09:25:39.962Z,548
2019-02-06T09:26:20.590Z,552
2019-02-06T09:27:01.170Z,556
2019-02-06T09:27:41.764Z,556
2019-02-06T09:28:22.358Z,560
2019-02-06T09:29:02.960Z,564
2019-02-06T09:29:43.564Z,564
2019-02-06T09:30:26.086Z,568
2019-02-06T09:31:06.638Z,568
2019-02-06T09:31:47.249Z,572
2019-02-06T09:32:27.842Z,572
2019-02-06T09:33:08.455Z,572
2019-02-06T09:33:49.083Z,576
2019-02-06T09:34:29.672Z,580
2019-02-06T09:35:10.276Z,584
2019-02-06T09:35:50.866Z,588
2019-02-06T09:36:31.468Z,588
2019-02-06T09:37:13.640Z,596
2019-02-06T09:37:54.293Z,596
2019-02-06T09:38:34.891Z,600
2019-02-06T09:39:15.531Z,604
2019-02-06T09:39:57.877Z,608
2019-02-06T09:40:38.488Z,612
2019-02-06T09:41:19.074Z,616
2019-02-06T09:41:59.686Z,616
2019-02-06T09:42:40.309Z,620
2019-02-06T09:43:21.001Z,636
2019-02-06T09:44:01.572Z,628
2019-02-06T09:44:42.150Z,632
2019-02-06T09:45:22.744Z,628
2019-02-06T09:46:03.320Z,632
2019-02-06T09:46:43.917Z,632
2019-02-06T09:47:24.504Z,632
2019-02-06T09:48:05.130Z,636
2019-02-06T09:48:45.724Z,636